Station info - map view · info · telemetry · weather · raw · status · beacons · messages · bulletins · browse · moving · my account
Callsign, ship name or locator: Clear       
It is possible to search using wildcards (*?) after a prefix. Example: OH*
APRS station OZ2BRN-9 - show graphs
Map loading...
Comment: PROUDLY SUPPORTING KISSOZ MODEMS
Mic-E message: En route
Location: 55°26.05' N 11°51.30' E - locator JO55WK24OE - show map - static map
2.6 miles East bearing 103° from Ringsted, Ringsted Kommune, Zealand, Denmark [?]
6.3 miles Southwest bearing 229° from Borup, Køge Kommune, Zealand, Denmark
32.4 miles Southwest bearing 239° from Copenhagen, Københavns Kommune, Capital Region, Denmark
46.3 miles West bearing 256° from Malmö (Malmoe), Malmö Kommun, Skåne, Sweden
Last position: 2020-02-17 15:37:10 EST (2h4m ago)
2020-02-17 21:37:10 CET local time at Ringsted, Denmark [?]
Altitude: 98 ft
Course: 234°
Speed: 0 MPH
Device: Yaesu: FTM-350 (rig)
Last path: OZ2BRN-9>UU2V05 via OZ4QZZ-2*,OZ8NST-2*,WIDE2,qAR,OZ5DSL-1 (good)
Positions stored: 127778
Packet rate: 45 seconds between packets on average during 2190 seconds.
Stations near current position of OZ2BRN-9 - show more
callsign distance last heard - EST      callsign distance last heard - EST
OZ3TB-71.8 miles 289°2020-02-17 13:25:00 OZ9DID-32.6 miles 291°2020-02-17 17:27:49
OZ1ANE-122.8 miles 323°2020-02-17 17:24:21 434,9375-6.3 miles 72°2020-02-17 17:38:54
OZ6REG6.3 miles 71°2020-02-17 17:38:42 OZ4QZZ-26.4 miles 70°2020-02-17 17:27:47
OZ9DIC-16.5 miles 49°2020-02-17 17:22:47 OZ/OZ-0107.9 miles 0°2020-02-17 13:44:29
OZ0DMR-19.0 miles 352°2020-02-17 17:30:27 OZ0DMR-DP9.0 miles 352°2020-02-17 14:36:51
R283054110.1 miles 328°2020-02-08 19:24:30 CW760411.3 miles 189°2020-01-26 03:24:12
OZ1CYB-713.6 miles 2°2020-02-03 10:45:32 OZ1DAE B14.4 miles 151°2020-02-17 17:29:12
OZ1DAE-B14.4 miles 151°2020-02-17 17:29:22 OZ1DAE14.4 miles 151°2020-02-17 17:38:51
OZ8NST-214.5 miles 195°2020-02-17 17:40:49 OZ1BJM-DP14.8 miles 96°2020-02-17 17:40:02
OZ1BJM14.8 miles 96°2020-02-17 17:38:50 OZ0REA B14.9 miles 192°2020-02-17 17:41:20
Stations which heard OZ2BRN-9 directly on radio –
callsign pkts first heard - EST last heard longest (tx => rx) longest at - EST
OZ4DIE-2 287 2020-02-02 12:12:14 2020-02-17 14:55:52 JO65KN > JO65FR 20.4 miles 304° 2020-02-02 12:12:14
OZ5DIB-1 6 2020-02-06 16:22:44 2020-02-14 10:34:10 JO65GO > JO55XU 25.9 miles 308° 2020-02-06 16:22:44
OZ4DIA-2 38 2020-02-12 01:31:25 2020-02-12 11:53:12 JO54TS > JO64AV 19.0 miles 68° 2020-02-12 11:28:02
OZ6FRS-3 22 2020-02-03 13:05:05 2020-02-14 10:32:10 JO55XN > JO65BT 19.5 miles 17° 2020-02-14 10:32:10
OZ6DIA-2 44 2020-02-12 01:55:01 2020-02-12 11:26:48 PM86AA > JO54QQ 5360.4 miles 331° 2020-02-12 11:14:33
OZ8SMA-2 22 2020-02-12 01:20:51 2020-02-12 11:53:11 JO55XF > JO55WA 13.6 miles 193° 2020-02-12 01:20:51
OZ2GRE-3 151 2020-02-02 12:41:39 2020-02-17 15:04:11 JO65CM > JO65DO 6.0 miles 36° 2020-02-06 02:04:02
SK7WX-2 25 2020-02-02 11:30:35 2020-02-02 12:15:58 JO65JN > JO65PS 23.0 miles 53° 2020-02-02 12:15:58
OZ1BZJ-1 61 2020-02-02 12:39:10 2020-02-17 14:55:51 JO65ET > JO65CQ 9.9 miles 215° 2020-02-03 17:36:01
OZ5DIQ-1 2 2020-02-03 13:18:00 2020-02-03 13:20:59 JO65ES > JO65GT 4.9 miles 78° 2020-02-03 13:20:59
OZ5DSL-1 1 2020-02-03 07:43:58 2020-02-03 07:43:58 JO55VK > JO55QJ 18.3 miles 258° 2020-02-03 07:43:58
OZ7HVO-1 97 2020-02-03 17:42:27 2020-02-17 14:52:21 JO65EP > JO65FQ 2.9 miles 56° 2020-02-04 09:18:56
SK7DS-2 16 2020-02-02 12:11:37 2020-02-07 02:22:47 JO65KN > JO65JW 26.0 miles 354° 2020-02-02 12:11:37
OZ0DMR-1 671 2020-02-02 12:16:33 2020-02-17 15:36:39 PM86AA > JO55VN 5305.1 miles 331° 2020-02-04 09:02:31
OZ7KBR-1 99 2020-02-02 12:12:12 2020-02-17 14:48:50 JO65KN > JO65FR 20.5 miles 308° 2020-02-02 12:12:12
OZ4QZZ-2 539 2020-02-02 12:49:14 2020-02-17 15:37:09 JO65DP > JO65AL 17.3 miles 227° 2020-02-10 11:34:01
OZ9DID-3 268 2020-02-02 13:01:34 2020-02-17 15:36:00 JO55XK > JO55VK 5.9 miles 271° 2020-02-05 02:10:40
OZ9DIC-1 205 2020-02-02 12:57:23 2020-02-17 15:21:55 JO65CM > JO55XL 8.7 miles 256° 2020-02-10 02:29:12

Only position packets which were originated by the station are shown here. The range statistics show some extra long hops, because some digipeaters do not correctly add themselves to the digipeater path. Please check the raw packets.
About this site
This page shows real-time information collected from the Automatic Position Reporting System Internet network (APRS-IS). APRS is used by amateur (ham) radio operators to transmit real-time position information, weather data, telemetry and messages over the radio. A vehicle equipped with a GPS receiver, a VHF transmitter or HF transceiver and a small computer device called a tracker transmits it's location, speed and course in a small data packet, which is then received by a nearby iGate receiving site which forwards the packet on the Internet. Systems connected to the Internet can send information on the APRS-IS without a radio transmitter, or collect and display information transmitted anywhere in the world.
User guide · FAQ · Blog · Discussion group · Linking to aprs.fi · AIS sites · Service status · Database statistics · Advertising on aprs.fi · Technical details · API · Change log · Planned changes · Credits and thanks · Terms Of Service · iPhone/iPad APRS